sensor_id;sensor_type;location;lat;lon;timestamp;P1;durP1;ratioP1;P2;durP2;ratioP2
2892;SDS011;1456;51.840;12.184;2023-07-20T01:32:19;1.60;;;1.50;;
2892;SDS011;1456;51.840;12.184;2023-07-20T01:34:49;3.00;;;2.70;;
2892;SDS011;1456;51.840;12.184;2023-07-20T01:37:19;2.00;;;1.17;;
2892;SDS011;1456;51.840;12.184;2023-07-20T01:39:50;1.30;;;1.30;;
2892;SDS011;1456;51.840;12.184;2023-07-20T01:42:16;2.10;;;1.17;;
2892;SDS011;1456;51.840;12.184;2023-07-20T01:47:12;4.63;;;2.03;;
2892;SDS011;1456;51.840;12.184;2023-07-20T01:49:40;0.80;;;0.80;;
2892;SDS011;1456;51.840;12.184;2023-07-20T01:52:07;1.50;;;1.40;;
2892;SDS011;1456;51.840;12.184;2023-07-20T01:54:33;0.70;;;0.70;;
2892;SDS011;1456;51.840;12.184;2023-07-20T01:59:32;1.17;;;1.17;;
2892;SDS011;1456;51.840;12.184;2023-07-20T02:01:58;1.50;;;1.13;;
2892;SDS011;1456;51.840;12.184;2023-07-20T02:04:23;0.73;;;0.73;;
2892;SDS011;1456;51.840;12.184;2023-07-20T02:06:49;1.07;;;1.07;;
2892;SDS011;1456;51.840;12.184;2023-07-20T02:09:16;1.23;;;1.20;;
2892;SDS011;1456;51.840;12.184;2023-07-20T02:11:41;1.20;;;1.17;;
2892;SDS011;1456;51.840;12.184;2023-07-20T02:14:08;1.73;;;1.60;;
2892;SDS011;1456;51.840;12.184;2023-07-20T02:16:34;1.43;;;1.17;;
2892;SDS011;1456;51.840;12.184;2023-07-20T02:19:02;1.27;;;1.27;;
2892;SDS011;1456;51.840;12.184;2023-07-20T02:21:29;2.10;;;2.00;;
2892;SDS011;1456;51.840;12.184;2023-07-20T02:23:54;4.10;;;1.97;;
2892;SDS011;1456;51.840;12.184;2023-07-20T02:26:20;0.60;;;0.60;;
2892;SDS011;1456;51.840;12.184;2023-07-20T02:28:47;0.90;;;0.90;;
2892;SDS011;1456;51.840;12.184;2023-07-20T02:31:12;0.60;;;0.60;;
2892;SDS011;1456;51.840;12.184;2023-07-20T02:33:39;0.73;;;0.70;;
2892;SDS011;1456;51.840;12.184;2023-07-20T02:36:04;0.93;;;0.90;;
2892;SDS011;1456;51.840;12.184;2023-07-20T02:38:32;0.87;;;0.77;;
2892;SDS011;1456;51.840;12.184;2023-07-20T02:40:58;0.70;;;0.70;;
2892;SDS011;1456;51.840;12.184;2023-07-20T02:45:52;1.93;;;1.83;;
2892;SDS011;1456;51.840;12.184;2023-07-20T02:48:18;0.80;;;0.80;;
2892;SDS011;1456;51.840;12.184;2023-07-20T02:50:44;2.93;;;1.43;;
2892;SDS011;1456;51.840;12.184;2023-07-20T02:53:11;3.53;;;0.70;;
2892;SDS011;1456;51.840;12.184;2023-07-20T02:55:38;1.20;;;1.20;;
2892;SDS011;1456;51.840;12.184;2023-07-20T02:58:04;0.80;;;0.80;;
2892;SDS011;1456;51.840;12.184;2023-07-20T03:00:30;1.00;;;0.90;;
2892;SDS011;1456;51.840;12.184;2023-07-20T03:02:55;0.63;;;0.63;;
2892;SDS011;1456;51.840;12.184;2023-07-20T03:07:53;0.70;;;0.70;;
2892;SDS011;1456;51.840;12.184;2023-07-20T03:10:18;1.30;;;1.20;;
2892;SDS011;1456;51.840;12.184;2023-07-20T03:15:14;0.40;;;0.40;;
2892;SDS011;1456;51.840;12.184;2023-07-20T03:17:41;0.43;;;0.40;;
2892;SDS011;1456;51.840;12.184;2023-07-20T03:20:08;0.50;;;0.50;;
2892;SDS011;1456;51.840;12.184;2023-07-20T03:22:36;0.67;;;0.67;;
2892;SDS011;1456;51.840;12.184;2023-07-20T03:25:02;0.87;;;0.53;;
2892;SDS011;1456;51.840;12.184;2023-07-20T03:27:30;1.60;;;1.60;;
2892;SDS011;1456;51.840;12.184;2023-07-20T03:29:56;1.10;;;0.70;;
2892;SDS011;1456;51.840;12.184;2023-07-20T03:32:23;1.60;;;1.60;;
2892;SDS011;1456;51.840;12.184;2023-07-20T03:34:49;0.90;;;0.90;;
2892;SDS011;1456;51.840;12.184;2023-07-20T03:37:17;3.63;;;3.17;;
2892;SDS011;1456;51.840;12.184;2023-07-20T03:39:43;4.43;;;1.27;;
2892;SDS011;1456;51.840;12.184;2023-07-20T03:42:11;3.50;;;0.50;;
2892;SDS011;1456;51.840;12.184;2023-07-20T03:44:38;0.60;;;0.60;;
2892;SDS011;1456;51.840;12.184;2023-07-20T03:47:05;1.47;;;0.60;;
2892;SDS011;1456;51.840;12.184;2023-07-20T03:49:31;1.07;;;1.07;;
2892;SDS011;1456;51.840;12.184;2023-07-20T03:52:00;1.90;;;0.90;;
2892;SDS011;1456;51.840;12.184;2023-07-20T03:54:29;1.20;;;1.10;;
2892;SDS011;1456;51.840;12.184;2023-07-20T03:56:56;1.37;;;1.27;;
2892;SDS011;1456;51.840;12.184;2023-07-20T03:59:21;0.80;;;0.80;;
2892;SDS011;1456;51.840;12.184;2023-07-20T04:01:47;2.13;;;2.03;;
2892;SDS011;1456;51.840;12.184;2023-07-20T04:04:13;2.30;;;2.10;;
2892;SDS011;1456;51.840;12.184;2023-07-20T04:06:42;0.90;;;0.90;;
2892;SDS011;1456;51.840;12.184;2023-07-20T04:09:11;3.23;;;1.33;;
2892;SDS011;1456;51.840;12.184;2023-07-20T04:11:38;1.13;;;0.97;;
2892;SDS011;1456;51.840;12.184;2023-07-20T04:14:05;0.60;;;0.60;;
2892;SDS011;1456;51.840;12.184;2023-07-20T04:16:30;1.80;;;0.60;;
2892;SDS011;1456;51.840;12.184;2023-07-20T04:18:57;1.13;;;1.13;;
2892;SDS011;1456;51.840;12.184;2023-07-20T04:21:23;0.90;;;0.90;;
2892;SDS011;1456;51.840;12.184;2023-07-20T04:23:53;2.20;;;1.40;;
2892;SDS011;1456;51.840;12.184;2023-07-20T04:26:18;1.93;;;1.80;;
2892;SDS011;1456;51.840;12.184;2023-07-20T04:28:44;1.00;;;0.80;;
2892;SDS011;1456;51.840;12.184;2023-07-20T04:31:12;1.83;;;1.73;;
2892;SDS011;1456;51.840;12.184;2023-07-20T04:33:40;1.47;;;0.90;;
2892;SDS011;1456;51.840;12.184;2023-07-20T04:36:06;2.00;;;0.60;;
2892;SDS011;1456;51.840;12.184;2023-07-20T04:38:33;2.13;;;1.67;;
2892;SDS011;1456;51.840;12.184;2023-07-20T04:41:01;1.73;;;1.63;;
2892;SDS011;1456;51.840;12.184;2023-07-20T04:43:28;1.87;;;1.63;;
2892;SDS011;1456;51.840;12.184;2023-07-20T04:48:23;0.60;;;0.57;;
2892;SDS011;1456;51.840;12.184;2023-07-20T04:50:49;0.80;;;0.70;;
2892;SDS011;1456;51.840;12.184;2023-07-20T04:53:15;0.70;;;0.70;;
2892;SDS011;1456;51.840;12.184;2023-07-20T04:55:46;1.47;;;1.37;;
2892;SDS011;1456;51.840;12.184;2023-07-20T04:58:16;1.17;;;1.17;;
2892;SDS011;1456;51.840;12.184;2023-07-20T05:03:15;0.50;;;0.50;;
2892;SDS011;1456;51.840;12.184;2023-07-20T05:05:41;2.30;;;1.30;;
2892;SDS011;1456;51.840;12.184;2023-07-20T05:08:07;0.50;;;0.50;;
2892;SDS011;1456;51.840;12.184;2023-07-20T05:10:34;2.80;;;1.07;;
2892;SDS011;1456;51.840;12.184;2023-07-20T05:15:28;1.13;;;0.80;;
2892;SDS011;1456;51.840;12.184;2023-07-20T05:17:55;1.60;;;0.70;;
2892;SDS011;1456;51.840;12.184;2023-07-20T05:20:21;3.23;;;0.97;;
2892;SDS011;1456;51.840;12.184;2023-07-20T05:22:47;28.20;;;1.60;;
2892;SDS011;1456;51.840;12.184;2023-07-20T05:25:13;1.00;;;1.00;;
2892;SDS011;1456;51.840;12.184;2023-07-20T05:27:42;1.03;;;0.90;;
2892;SDS011;1456;51.840;12.184;2023-07-20T05:30:08;0.70;;;0.50;;
2892;SDS011;1456;51.840;12.184;2023-07-20T05:32:34;0.97;;;0.90;;
2892;SDS011;1456;51.840;12.184;2023-07-20T05:34:59;1.53;;;1.43;;
2892;SDS011;1456;51.840;12.184;2023-07-20T05:37:26;0.97;;;0.50;;
2892;SDS011;1456;51.840;12.184;2023-07-20T05:39:52;0.97;;;0.77;;
2892;SDS011;1456;51.840;12.184;2023-07-20T05:42:17;1.23;;;1.23;;
2892;SDS011;1456;51.840;12.184;2023-07-20T05:44:43;0.57;;;0.57;;
2892;SDS011;1456;51.840;12.184;2023-07-20T05:47:10;0.50;;;0.50;;
2892;SDS011;1456;51.840;12.184;2023-07-20T05:49:35;0.60;;;0.60;;
2892;SDS011;1456;51.840;12.184;2023-07-20T05:52:01;1.20;;;1.20;;
2892;SDS011;1456;51.840;12.184;2023-07-20T05:54:28;2.00;;;1.63;;
2892;SDS011;1456;51.840;12.184;2023-07-20T05:56:54;0.60;;;0.50;;
2892;SDS011;1456;51.840;12.184;2023-07-20T05:59:21;0.97;;;0.97;;
2892;SDS011;1456;51.840;12.184;2023-07-20T06:01:50;2.90;;;1.13;;
2892;SDS011;1456;51.840;12.184;2023-07-20T06:04:16;1.90;;;1.00;;
2892;SDS011;1456;51.840;12.184;2023-07-20T06:06:43;1.37;;;1.37;;
2892;SDS011;1456;51.840;12.184;2023-07-20T06:09:09;0.83;;;0.70;;
2892;SDS011;1456;51.840;12.184;2023-07-20T06:11:39;0.80;;;0.80;;
2892;SDS011;1456;51.840;12.184;2023-07-20T06:14:04;1.13;;;0.80;;
2892;SDS011;1456;51.840;12.184;2023-07-20T06:16:30;1.23;;;1.03;;
2892;SDS011;1456;51.840;12.184;2023-07-20T06:18:56;0.97;;;0.70;;
2892;SDS011;1456;51.840;12.184;2023-07-20T06:21:22;2.93;;;1.50;;
2892;SDS011;1456;51.840;12.184;2023-07-20T06:23:49;1.10;;;1.10;;
2892;SDS011;1456;51.840;12.184;2023-07-20T06:26:15;1.10;;;1.10;;
2892;SDS011;1456;51.840;12.184;2023-07-20T06:28:44;1.43;;;1.30;;
2892;SDS011;1456;51.840;12.184;2023-07-20T06:31:14;1.43;;;1.33;;
2892;SDS011;1456;51.840;12.184;2023-07-20T06:33:40;1.63;;;1.53;;
2892;SDS011;1456;51.840;12.184;2023-07-20T06:36:07;0.80;;;0.80;;
2892;SDS011;1456;51.840;12.184;2023-07-20T06:38:33;1.57;;;1.57;;
2892;SDS011;1456;51.840;12.184;2023-07-20T06:40:58;2.77;;;1.10;;
2892;SDS011;1456;51.840;12.184;2023-07-20T06:43:26;0.73;;;0.73;;
2892;SDS011;1456;51.840;12.184;2023-07-20T06:45:53;1.10;;;1.10;;
2892;SDS011;1456;51.840;12.184;2023-07-20T06:48:19;2.40;;;1.30;;
2892;SDS011;1456;51.840;12.184;2023-07-20T06:50:46;1.23;;;1.13;;
2892;SDS011;1456;51.840;12.184;2023-07-20T06:53:13;1.40;;;1.30;;
2892;SDS011;1456;51.840;12.184;2023-07-20T06:55:39;1.27;;;1.27;;
2892;SDS011;1456;51.840;12.184;2023-07-20T06:58:08;1.90;;;1.80;;
2892;SDS011;1456;51.840;12.184;2023-07-20T07:00:34;1.50;;;1.50;;
2892;SDS011;1456;51.840;12.184;2023-07-20T07:03:00;1.50;;;1.50;;
2892;SDS011;1456;51.840;12.184;2023-07-20T07:05:30;1.60;;;1.60;;
2892;SDS011;1456;51.840;12.184;2023-07-20T07:07:57;1.80;;;1.80;;
2892;SDS011;1456;51.840;12.184;2023-07-20T07:10:22;2.93;;;2.93;;
2892;SDS011;1456;51.840;12.184;2023-07-20T07:12:48;3.03;;;3.03;;
2892;SDS011;1456;51.840;12.184;2023-07-20T07:15:13;3.90;;;3.90;;
2892;SDS011;1456;51.840;12.184;2023-07-20T07:17:41;5.23;;;5.23;;
2892;SDS011;1456;51.840;12.184;2023-07-20T07:20:09;5.80;;;5.33;;
2892;SDS011;1456;51.840;12.184;2023-07-20T07:22:35;5.50;;;5.50;;
2892;SDS011;1456;51.840;12.184;2023-07-20T07:25:00;5.30;;;5.30;;
2892;SDS011;1456;51.840;12.184;2023-07-20T07:27:32;6.10;;;6.00;;
2892;SDS011;1456;51.840;12.184;2023-07-20T07:29:58;5.07;;;4.93;;
2892;SDS011;1456;51.840;12.184;2023-07-20T07:32:24;5.30;;;5.30;;
2892;SDS011;1456;51.840;12.184;2023-07-20T07:34:50;6.60;;;6.50;;
2892;SDS011;1456;51.840;12.184;2023-07-20T07:45:58;6.20;;;6.20;;
2892;SDS011;1456;51.840;12.184;2023-07-20T07:48:23;6.20;;;6.20;;
2892;SDS011;1456;51.840;12.184;2023-07-20T07:51:00;5.40;;;5.40;;
2892;SDS011;1456;51.840;12.184;2023-07-20T07:55:56;5.73;;;5.63;;
2892;SDS011;1456;51.840;12.184;2023-07-20T07:58:21;5.83;;;5.83;;
2892;SDS011;1456;51.840;12.184;2023-07-20T08:00:47;6.40;;;6.30;;
2892;SDS011;1456;51.840;12.184;2023-07-20T08:03:15;5.90;;;5.90;;
2892;SDS011;1456;51.840;12.184;2023-07-20T08:05:41;6.37;;;6.27;;
2892;SDS011;1456;51.840;12.184;2023-07-20T08:08:07;6.60;;;6.50;;
2892;SDS011;1456;51.840;12.184;2023-07-20T08:10:33;6.63;;;6.53;;
2892;SDS011;1456;51.840;12.184;2023-07-20T08:13:00;6.97;;;6.87;;
2892;SDS011;1456;51.840;12.184;2023-07-20T08:15:27;7.13;;;7.03;;
2892;SDS011;1456;51.840;12.184;2023-07-20T08:17:52;7.80;;;7.70;;
2892;SDS011;1456;51.840;12.184;2023-07-20T08:20:22;7.90;;;7.80;;
2892;SDS011;1456;51.840;12.184;2023-07-20T08:22:51;7.70;;;7.60;;
2892;SDS011;1456;51.840;12.184;2023-07-20T08:25:19;7.20;;;7.10;;
2892;SDS011;1456;51.840;12.184;2023-07-20T08:30:15;6.30;;;6.30;;
2892;SDS011;1456;51.840;12.184;2023-07-20T08:32:41;6.63;;;6.53;;
2892;SDS011;1456;51.840;12.184;2023-07-20T08:35:07;6.90;;;6.80;;
2892;SDS011;1456;51.840;12.184;2023-07-20T08:37:34;7.60;;;7.50;;
2892;SDS011;1456;51.840;12.184;2023-07-20T08:40:01;6.80;;;6.70;;
2892;SDS011;1456;51.840;12.184;2023-07-20T08:42:28;7.40;;;7.30;;
2892;SDS011;1456;51.840;12.184;2023-07-20T08:44:55;7.57;;;7.47;;
2892;SDS011;1456;51.840;12.184;2023-07-20T08:47:22;7.90;;;7.80;;
2892;SDS011;1456;51.840;12.184;2023-07-20T08:49:51;7.97;;;7.87;;
2892;SDS011;1456;51.840;12.184;2023-07-20T08:52:25;8.47;;;8.37;;
2892;SDS011;1456;51.840;12.184;2023-07-20T08:57:28;8.30;;;8.20;;
2892;SDS011;1456;51.840;12.184;2023-07-20T09:00:02;8.20;;;8.10;;
2892;SDS011;1456;51.840;12.184;2023-07-20T09:05:12;8.00;;;7.90;;
2892;SDS011;1456;51.840;12.184;2023-07-20T09:07:41;8.37;;;8.27;;
2892;SDS011;1456;51.840;12.184;2023-07-20T09:10:08;8.00;;;7.90;;
2892;SDS011;1456;51.840;12.184;2023-07-20T09:12:41;7.90;;;7.80;;
2892;SDS011;1456;51.840;12.184;2023-07-20T09:15:09;8.27;;;8.17;;
2892;SDS011;1456;51.840;12.184;2023-07-20T09:17:37;8.33;;;8.07;;
2892;SDS011;1456;51.840;12.184;2023-07-20T09:20:05;8.23;;;8.13;;
2892;SDS011;1456;51.840;12.184;2023-07-20T09:22:36;8.07;;;7.97;;
2892;SDS011;1456;51.840;12.184;2023-07-20T09:25:17;8.20;;;8.10;;
2892;SDS011;1456;51.840;12.184;2023-07-20T09:27:49;8.67;;;8.57;;
2892;SDS011;1456;51.840;12.184;2023-07-20T09:36:12;9.90;;;9.70;;
2892;SDS011;1456;51.840;12.184;2023-07-20T09:41:25;9.27;;;9.17;;
2892;SDS011;1456;51.840;12.184;2023-07-20T09:43:53;8.70;;;8.60;;
2892;SDS011;1456;51.840;12.184;2023-07-20T09:46:24;9.20;;;9.00;;
2892;SDS011;1456;51.840;12.184;2023-07-20T09:49:08;8.20;;;8.10;;
2892;SDS011;1456;51.840;12.184;2023-07-20T09:54:07;8.07;;;7.97;;
2892;SDS011;1456;51.840;12.184;2023-07-20T09:59:05;8.40;;;8.30;;
2892;SDS011;1456;51.840;12.184;2023-07-20T10:04:15;8.80;;;8.70;;
2892;SDS011;1456;51.840;12.184;2023-07-20T10:06:46;8.00;;;7.90;;
2892;SDS011;1456;51.840;12.184;2023-07-20T10:11:50;7.93;;;7.83;;
2892;SDS011;1456;51.840;12.184;2023-07-20T10:14:24;8.40;;;8.30;;
2892;SDS011;1456;51.840;12.184;2023-07-20T10:16:53;9.17;;;9.07;;
2892;SDS011;1456;51.840;12.184;2023-07-20T10:19:24;8.37;;;8.27;;
2892;SDS011;1456;51.840;12.184;2023-07-20T10:22:03;8.50;;;8.40;;
2892;SDS011;1456;51.840;12.184;2023-07-20T10:24:39;7.83;;;7.70;;
2892;SDS011;1456;51.840;12.184;2023-07-20T10:27:07;8.33;;;8.23;;
2892;SDS011;1456;51.840;12.184;2023-07-20T10:29:36;8.40;;;8.30;;
2892;SDS011;1456;51.840;12.184;2023-07-20T10:32:05;8.00;;;7.80;;
2892;SDS011;1456;51.840;12.184;2023-07-20T10:34:32;8.43;;;8.33;;
2892;SDS011;1456;51.840;12.184;2023-07-20T10:36:58;8.77;;;8.67;;
2892;SDS011;1456;51.840;12.184;2023-07-20T10:39:28;7.80;;;7.70;;
2892;SDS011;1456;51.840;12.184;2023-07-20T10:42:03;8.90;;;8.80;;
2892;SDS011;1456;51.840;12.184;2023-07-20T10:44:38;8.90;;;8.80;;
2892;SDS011;1456;51.840;12.184;2023-07-20T10:47:12;8.90;;;8.80;;
2892;SDS011;1456;51.840;12.184;2023-07-20T10:49:57;8.93;;;8.73;;
2892;SDS011;1456;51.840;12.184;2023-07-20T10:52:31;8.90;;;8.80;;
2892;SDS011;1456;51.840;12.184;2023-07-20T10:55:16;8.30;;;8.20;;
2892;SDS011;1456;51.840;12.184;2023-07-20T10:57:42;8.50;;;8.40;;
2892;SDS011;1456;51.840;12.184;2023-07-20T11:00:09;7.17;;;7.07;;
2892;SDS011;1456;51.840;12.184;2023-07-20T11:05:56;8.60;;;8.50;;
2892;SDS011;1456;51.840;12.184;2023-07-20T11:07:57;7.20;;;7.10;;
2892;SDS011;1456;51.840;12.184;2023-07-20T11:10:23;7.03;;;6.93;;
2892;SDS011;1456;51.840;12.184;2023-07-20T11:18:32;8.90;;;8.80;;
2892;SDS011;1456;51.840;12.184;2023-07-20T11:21:00;8.60;;;8.50;;
2892;SDS011;1456;51.840;12.184;2023-07-20T11:23:27;8.93;;;8.83;;
2892;SDS011;1456;51.840;12.184;2023-07-20T11:25:54;8.30;;;8.20;;
2892;SDS011;1456;51.840;12.184;2023-07-20T11:28:21;9.00;;;8.90;;
2892;SDS011;1456;51.840;12.184;2023-07-20T11:30:51;9.03;;;8.93;;
2892;SDS011;1456;51.840;12.184;2023-07-20T11:33:20;9.40;;;9.20;;
2892;SDS011;1456;51.840;12.184;2023-07-20T11:38:17;9.30;;;9.20;;
2892;SDS011;1456;51.840;12.184;2023-07-20T11:40:51;9.40;;;9.27;;
2892;SDS011;1456;51.840;12.184;2023-07-20T11:43:17;9.93;;;9.73;;
2892;SDS011;1456;51.840;12.184;2023-07-20T11:45:44;8.70;;;8.60;;
2892;SDS011;1456;51.840;12.184;2023-07-20T11:48:14;8.83;;;8.73;;
2892;SDS011;1456;51.840;12.184;2023-07-20T11:50:45;8.60;;;8.50;;
2892;SDS011;1456;51.840;12.184;2023-07-20T11:53:12;8.50;;;8.40;;
2892;SDS011;1456;51.840;12.184;2023-07-20T11:55:40;8.70;;;8.60;;
2892;SDS011;1456;51.840;12.184;2023-07-20T11:58:08;8.87;;;8.77;;
2892;SDS011;1456;51.840;12.184;2023-07-20T12:00:35;9.10;;;9.00;;
2892;SDS011;1456;51.840;12.184;2023-07-20T12:03:04;8.40;;;8.30;;
2892;SDS011;1456;51.840;12.184;2023-07-20T12:05:35;10.00;;;9.90;;
2892;SDS011;1456;51.840;12.184;2023-07-20T12:08:03;9.20;;;9.10;;
2892;SDS011;1456;51.840;12.184;2023-07-20T12:10:29;9.53;;;9.43;;
2892;SDS011;1456;51.840;12.184;2023-07-20T12:13:04;10.40;;;10.20;;
2892;SDS011;1456;51.840;12.184;2023-07-20T12:15:31;10.40;;;10.20;;
2892;SDS011;1456;51.840;12.184;2023-07-20T12:18:02;10.30;;;10.20;;
2892;SDS011;1456;51.840;12.184;2023-07-20T12:20:35;10.43;;;10.33;;
2892;SDS011;1456;51.840;12.184;2023-07-20T12:23:03;9.70;;;9.60;;
2892;SDS011;1456;51.840;12.184;2023-07-20T12:28:12;10.77;;;10.57;;
2892;SDS011;1456;51.840;12.184;2023-07-20T12:30:44;10.77;;;10.60;;
2892;SDS011;1456;51.840;12.184;2023-07-20T12:33:11;10.67;;;10.50;;
2892;SDS011;1456;51.840;12.184;2023-07-20T12:35:39;9.40;;;9.30;;
2892;SDS011;1456;51.840;12.184;2023-07-20T12:38:05;10.00;;;9.90;;
2892;SDS011;1456;51.840;12.184;2023-07-20T12:40:34;9.50;;;9.40;;
2892;SDS011;1456;51.840;12.184;2023-07-20T12:43:01;9.90;;;9.80;;
2892;SDS011;1456;51.840;12.184;2023-07-20T12:45:26;10.70;;;10.50;;
2892;SDS011;1456;51.840;12.184;2023-07-20T12:47:52;10.33;;;10.23;;
2892;SDS011;1456;51.840;12.184;2023-07-20T12:50:18;10.03;;;9.93;;
2892;SDS011;1456;51.840;12.184;2023-07-20T12:52:43;10.80;;;10.60;;
2892;SDS011;1456;51.840;12.184;2023-07-20T12:55:09;11.60;;;11.10;;
2892;SDS011;1456;51.840;12.184;2023-07-20T12:57:36;10.97;;;10.77;;
2892;SDS011;1456;51.840;12.184;2023-07-20T13:00:04;10.70;;;10.50;;
2892;SDS011;1456;51.840;12.184;2023-07-20T13:05:02;11.03;;;10.83;;
2892;SDS011;1456;51.840;12.184;2023-07-20T13:07:32;10.90;;;10.70;;
2892;SDS011;1456;51.840;12.184;2023-07-20T13:10:03;9.77;;;9.67;;
2892;SDS011;1456;51.840;12.184;2023-07-20T13:12:31;9.80;;;9.70;;
2892;SDS011;1456;51.840;12.184;2023-07-20T13:14:58;9.17;;;9.07;;
2892;SDS011;1456;51.840;12.184;2023-07-20T13:17:27;9.73;;;9.63;;
2892;SDS011;1456;51.840;12.184;2023-07-20T13:19:54;9.90;;;9.80;;
2892;SDS011;1456;51.840;12.184;2023-07-20T13:22:20;10.70;;;10.50;;
2892;SDS011;1456;51.840;12.184;2023-07-20T13:24:48;10.70;;;10.50;;
2892;SDS011;1456;51.840;12.184;2023-07-20T13:27:14;10.57;;;10.37;;
2892;SDS011;1456;51.840;12.184;2023-07-20T13:29:41;10.37;;;10.27;;
2892;SDS011;1456;51.840;12.184;2023-07-20T13:32:07;10.60;;;10.40;;
2892;SDS011;1456;51.840;12.184;2023-07-20T13:34:33;11.17;;;10.97;;
2892;SDS011;1456;51.840;12.184;2023-07-20T13:36:59;11.30;;;11.10;;
2892;SDS011;1456;51.840;12.184;2023-07-20T13:39:28;11.43;;;11.23;;
2892;SDS011;1456;51.840;12.184;2023-07-20T13:41:54;11.07;;;10.87;;
2892;SDS011;1456;51.840;12.184;2023-07-20T13:44:22;10.70;;;10.50;;
2892;SDS011;1456;51.840;12.184;2023-07-20T13:46:48;10.87;;;10.67;;
2892;SDS011;1456;51.840;12.184;2023-07-20T13:49:17;10.87;;;10.67;;
2892;SDS011;1456;51.840;12.184;2023-07-20T13:51:45;10.90;;;10.70;;
2892;SDS011;1456;51.840;12.184;2023-07-20T13:54:14;11.20;;;11.00;;
2892;SDS011;1456;51.840;12.184;2023-07-20T13:56:41;11.00;;;10.80;;
2892;SDS011;1456;51.840;12.184;2023-07-20T13:59:07;11.80;;;11.50;;
2892;SDS011;1456;51.840;12.184;2023-07-20T14:01:40;11.40;;;11.20;;
2892;SDS011;1456;51.840;12.184;2023-07-20T14:04:06;10.53;;;10.33;;
2892;SDS011;1456;51.840;12.184;2023-07-20T14:09:13;8.63;;;8.53;;
2892;SDS011;1456;51.840;12.184;2023-07-20T14:11:39;10.20;;;10.10;;
2892;SDS011;1456;51.840;12.184;2023-07-20T14:14:06;10.30;;;10.20;;
2892;SDS011;1456;51.840;12.184;2023-07-20T14:16:31;10.37;;;10.27;;
2892;SDS011;1456;51.840;12.184;2023-07-20T14:18:57;10.30;;;10.20;;
2892;SDS011;1456;51.840;12.184;2023-07-20T14:21:24;10.60;;;10.40;;
2892;SDS011;1456;51.840;12.184;2023-07-20T14:23:51;9.80;;;9.60;;
2892;SDS011;1456;51.840;12.184;2023-07-20T14:28:51;10.40;;;10.30;;
2892;SDS011;1456;51.840;12.184;2023-07-20T14:31:17;10.47;;;10.30;;
2892;SDS011;1456;51.840;12.184;2023-07-20T14:33:46;10.40;;;10.30;;
2892;SDS011;1456;51.840;12.184;2023-07-20T14:36:12;10.50;;;10.40;;
2892;SDS011;1456;51.840;12.184;2023-07-20T14:38:40;10.60;;;10.40;;
2892;SDS011;1456;51.840;12.184;2023-07-20T14:41:06;10.80;;;10.60;;
2892;SDS011;1456;51.840;12.184;2023-07-20T14:43:31;10.93;;;10.73;;
2892;SDS011;1456;51.840;12.184;2023-07-20T14:45:57;10.80;;;10.60;;
2892;SDS011;1456;51.840;12.184;2023-07-20T14:48:23;10.83;;;10.63;;
2892;SDS011;1456;51.840;12.184;2023-07-20T14:50:57;10.00;;;9.90;;
2892;SDS011;1456;51.840;12.184;2023-07-20T14:53:25;10.13;;;9.97;;
2892;SDS011;1456;51.840;12.184;2023-07-20T14:55:58;10.30;;;10.20;;
2892;SDS011;1456;51.840;12.184;2023-07-20T14:58:27;10.13;;;10.03;;
2892;SDS011;1456;51.840;12.184;2023-07-20T15:00:53;9.57;;;9.47;;
2892;SDS011;1456;51.840;12.184;2023-07-20T15:03:19;9.73;;;9.63;;
2892;SDS011;1456;51.840;12.184;2023-07-20T15:05:49;9.30;;;9.20;;
2892;SDS011;1456;51.840;12.184;2023-07-20T15:10:48;9.40;;;9.30;;
2892;SDS011;1456;51.840;12.184;2023-07-20T15:13:15;9.83;;;9.73;;
2892;SDS011;1456;51.840;12.184;2023-07-20T15:15:40;10.63;;;10.43;;
2892;SDS011;1456;51.840;12.184;2023-07-20T15:20:40;10.40;;;10.30;;
2892;SDS011;1456;51.840;12.184;2023-07-20T15:23:05;10.80;;;10.60;;
2892;SDS011;1456;51.840;12.184;2023-07-20T15:25:33;10.70;;;10.60;;
2892;SDS011;1456;51.840;12.184;2023-07-20T15:27:59;10.70;;;10.60;;
2892;SDS011;1456;51.840;12.184;2023-07-20T15:30:27;10.47;;;10.30;;
2892;SDS011;1456;51.840;12.184;2023-07-20T15:32:54;11.07;;;10.87;;
2892;SDS011;1456;51.840;12.184;2023-07-20T15:35:22;11.40;;;11.20;;
2892;SDS011;1456;51.840;12.184;2023-07-20T15:37:48;11.93;;;11.53;;
2892;SDS011;1456;51.840;12.184;2023-07-20T15:40:14;12.10;;;11.63;;
2892;SDS011;1456;51.840;12.184;2023-07-20T15:42:40;11.40;;;11.20;;
2892;SDS011;1456;51.840;12.184;2023-07-20T15:45:06;10.60;;;10.40;;
2892;SDS011;1456;51.840;12.184;2023-07-20T15:47:32;10.93;;;10.73;;
2892;SDS011;1456;51.840;12.184;2023-07-20T15:49:57;11.33;;;11.13;;
2892;SDS011;1456;51.840;12.184;2023-07-20T15:52:24;11.73;;;11.53;;
2892;SDS011;1456;51.840;12.184;2023-07-20T15:54:51;11.50;;;11.30;;
2892;SDS011;1456;51.840;12.184;2023-07-20T15:57:17;11.63;;;11.43;;
2892;SDS011;1456;51.840;12.184;2023-07-20T15:59:43;11.43;;;11.23;;
2892;SDS011;1456;51.840;12.184;2023-07-20T16:02:09;11.23;;;11.03;;
2892;SDS011;1456;51.840;12.184;2023-07-20T16:07:20;11.93;;;11.53;;
2892;SDS011;1456;51.840;12.184;2023-07-20T16:09:47;11.80;;;11.40;;
2892;SDS011;1456;51.840;12.184;2023-07-20T16:12:14;11.17;;;10.97;;
2892;SDS011;1456;51.840;12.184;2023-07-20T16:14:41;10.90;;;10.70;;
2892;SDS011;1456;51.840;12.184;2023-07-20T16:17:08;10.97;;;10.77;;
2892;SDS011;1456;51.840;12.184;2023-07-20T16:19:34;10.90;;;10.70;;
2892;SDS011;1456;51.840;12.184;2023-07-20T16:22:00;11.37;;;10.90;;
2892;SDS011;1456;51.840;12.184;2023-07-20T16:24:26;11.00;;;10.80;;
2892;SDS011;1456;51.840;12.184;2023-07-20T16:26:52;10.97;;;10.77;;
2892;SDS011;1456;51.840;12.184;2023-07-20T16:29:18;11.30;;;11.10;;
2892;SDS011;1456;51.840;12.184;2023-07-20T16:31:49;10.80;;;10.40;;
2892;SDS011;1456;51.840;12.184;2023-07-20T16:34:16;11.23;;;11.03;;
2892;SDS011;1456;51.840;12.184;2023-07-20T16:36:42;10.63;;;10.53;;
2892;SDS011;1456;51.840;12.184;2023-07-20T16:39:08;9.90;;;9.80;;
2892;SDS011;1456;51.840;12.184;2023-07-20T16:41:35;10.27;;;10.17;;
2892;SDS011;1456;51.840;12.184;2023-07-20T16:44:01;10.20;;;10.10;;
2892;SDS011;1456;51.840;12.184;2023-07-20T16:46:30;9.73;;;9.63;;
2892;SDS011;1456;51.840;12.184;2023-07-20T16:48:57;10.30;;;10.20;;
2892;SDS011;1456;51.840;12.184;2023-07-20T16:51:24;10.30;;;10.20;;
2892;SDS011;1456;51.840;12.184;2023-07-20T16:53:50;10.10;;;10.00;;
2892;SDS011;1456;51.840;12.184;2023-07-20T16:56:16;9.57;;;9.47;;
2892;SDS011;1456;51.840;12.184;2023-07-20T16:58:42;10.30;;;10.10;;
2892;SDS011;1456;51.840;12.184;2023-07-20T17:01:08;10.70;;;10.50;;
2892;SDS011;1456;51.840;12.184;2023-07-20T17:03:33;11.27;;;11.07;;
2892;SDS011;1456;51.840;12.184;2023-07-20T17:06:04;10.33;;;10.23;;
2892;SDS011;1456;51.840;12.184;2023-07-20T17:08:30;11.60;;;11.40;;
2892;SDS011;1456;51.840;12.184;2023-07-20T17:10:56;10.40;;;10.30;;
2892;SDS011;1456;51.840;12.184;2023-07-20T17:13:23;10.80;;;10.60;;
2892;SDS011;1456;51.840;12.184;2023-07-20T17:15:48;10.37;;;10.00;;
2892;SDS011;1456;51.840;12.184;2023-07-20T17:18:15;10.50;;;10.40;;
2892;SDS011;1456;51.840;12.184;2023-07-20T17:20:41;10.87;;;10.67;;
2892;SDS011;1456;51.840;12.184;2023-07-20T17:23:07;11.07;;;10.87;;
2892;SDS011;1456;51.840;12.184;2023-07-20T17:25:42;10.20;;;10.10;;
2892;SDS011;1456;51.840;12.184;2023-07-20T17:28:11;9.67;;;9.57;;
2892;SDS011;1456;51.840;12.184;2023-07-20T17:30:39;10.07;;;9.97;;
2892;SDS011;1456;51.840;12.184;2023-07-20T17:33:05;9.80;;;9.70;;
2892;SDS011;1456;51.840;12.184;2023-07-20T17:35:32;9.80;;;9.70;;
2892;SDS011;1456;51.840;12.184;2023-07-20T17:37:57;9.60;;;9.50;;
2892;SDS011;1456;51.840;12.184;2023-07-20T17:40:24;9.53;;;9.43;;
2892;SDS011;1456;51.840;12.184;2023-07-20T17:42:49;9.43;;;9.33;;
2892;SDS011;1456;51.840;12.184;2023-07-20T17:45:15;9.80;;;9.70;;
2892;SDS011;1456;51.840;12.184;2023-07-20T17:47:43;10.20;;;10.10;;
2892;SDS011;1456;51.840;12.184;2023-07-20T17:50:10;10.70;;;10.40;;
2892;SDS011;1456;51.840;12.184;2023-07-20T17:52:37;10.10;;;10.00;;